Ευχαριστούμε που συμβάλλετε στη διατήρηση της σελίδας μας.

Thank you for your donations, it really helps to maintain the page.

Meteo Stats And More

Στατιστικά Καιρού Και Άλλα






Δείκτης πυρκαγιάς (FWI)

Κάμερα Ρωμανού more information Romanos Cam


Ιστιοπλοικός Όμιλος Πάτρας more information Istioploikos Omilos Patras


Ραντάρ Κεραυνών more information blitzortung!


Ραντάρ Βροχής more information rain snow radar



Κοντινές Αναφορές METAR

  
LGRX - Araxos (civ/Afb), Greece
Απόσταση από τον σταθμό: ΔΝΔ 30km
Ενημερώθηκε: 23-01-2018 07:20
Αίθριος
Αίθριος  
 Άνεμος από calm
Άνεμος: Άπνοια
Θερμοκρασία:  3°C
Σημείο Δρόσου:  2°C
Υγρασία:  93%
Βαρόμετρο:  1015 hPa
Περίληψη:  Αίθριος
Ορατότητα:  μεγαλύτερο από 10 km
2018/01/23 05:20 LGRX 230520Z 00000KT CAVOK 03/02 Q1015
LGAD - Andravida (civ/A, Greece
Απόσταση από τον σταθμό: ΝΔ 55km
Ενημερώθηκε: 23-01-2018 07:20
Αίθριος
Αίθριος  
 Άνεμος από ποικίλλει
Άνεμος: ποικίλλει 4 km/h
Θερμοκρασία:  3°C
Σημείο Δρόσου:  0°C
Υγρασία:  81%
Βαρόμετρο:  1014 hPa
Περίληψη:  Αίθριος
Ορατότητα:  μεγαλύτερο από 10 km
2018/01/23 05:20 LGAD 230520Z VRB02KT CAVOK 03/00 Q1014
LGZA - Zakinthos Airpor, Greece
Απόσταση από τον σταθμό: ΝΔ 95km
Ενημερώθηκε: 22-01-2018 19:50
ΜΗ τρέχουσες
Κυρίως Αίθριος
Κυρίως Αίθριος  
 Άνεμος από ΒΔ
Άνεμος: ΒΔ 20 km/h
Θερμοκρασία:  10°C
Δείκτης Ψυχρότητας:  7°C
Σημείο Δρόσου:  3°C
Υγρασία:  62%
Βαρόμετρο:  1010 hPa
Σύννεφα:  Κυρίως Αίθριος
Ορατότητα:  10 km
Λεπτομέρειες Σύννεφου:  Κυρίως Αίθριος 610 m
2018/01/22 17:50 LGZA 221750Z 31011KT 9999 FEW020 10/03 Q1010
LGKF - Kefallinia, Greece
Απόσταση από τον σταθμό: Δ 110km
Ενημερώθηκε: 22-01-2018 19:50
ΜΗ τρέχουσες
Μερικώς Νεφελώδης
Μερικώς Νεφελώδης  
 Άνεμος από ΒΒΔ
Άνεμος: ΒΒΔ 33 km/h
Θερμοκρασία:  10°C
Δείκτης Ψυχρότητας:  6°C
Σημείο Δρόσου:  5°C
Υγρασία:  71%
Βαρόμετρο:  1011 hPa
Σύννεφα:  Μερικώς Νεφελώδης
Ορατότητα:  10 km
Λεπτομέρειες Σύννεφου:  Μερικώς Νεφελώδης 549 m
2018/01/22 17:50 LGKF 221750Z 34018KT 9999 SCT018 10/05 Q1011
LGPZ - Preveza/Aktion, Greece
Απόσταση από τον σταθμό: ΒΔ 114km
Ενημερώθηκε: 23-01-2018 07:20
Κυρίως Αίθριος
Κυρίως Αίθριος  
 Άνεμος από ΒΑ
Άνεμος: ΒΑ 13 km/h
Θερμοκρασία:  6°C
Δείκτης Ψυχρότητας:  3°C
Σημείο Δρόσου:  2°C
Υγρασία:  76%
Βαρόμετρο:  1015 hPa
Σύννεφα:  Κυρίως Αίθριος
Ορατότητα:  10 km
Λεπτομέρειες Σύννεφου:  Κυρίως Αίθριος 610 m
2018/01/23 05:20 LGPZ 230520Z 05007KT 9999 FEW020 06/02 Q1015
LGKL - Kalamata (hel-Af, Greece
Απόσταση από τον σταθμό: Ν 132km
Ενημερώθηκε: 23-01-2018 07:20
Ομίχλη, Μερικώς νεφελώδης
Ομίχλη, Μερικώς νεφελώδης  
 Άνεμος από calm
Άνεμος: Άπνοια
Θερμοκρασία:  2°C
Σημείο Δρόσου:  0°C
Υγρασία:  87%
Βαρόμετρο:  1014 hPa
Περίληψη:  Ομίχλη
Σύννεφα:  Μερικώς Νεφελώδης
Ορατότητα:  9 km
2018/01/23 05:20 LGKL 230520Z 00000KT 9000 4000SE BR NSC 02/M00 Q1014
LGBL - Nea Anchialos, Greece
Απόσταση από τον σταθμό: ΒΑ 142km
Ενημερώθηκε: 23-01-2018 07:20
Μερικώς Νεφελώδης
Μερικώς Νεφελώδης  
 Άνεμος από Δ
Άνεμος: Δ 13 km/h
Θερμοκρασία:  0°C
Δείκτης Ψυχρότητας:  -4°C
Σημείο Δρόσου:  -3°C
Υγρασία:  80%
Βαρόμετρο:  1018 hPa
Σύννεφα:  Μερικώς Νεφελώδης
Ορατότητα:  10 km
Λεπτομέρειες Σύννεφου:  Μερικώς Νεφελώδης 2438 m
2018/01/23 05:20 LGBL 230520Z 27007KT 9999 SCT080 00/M03 Q1018
LGEL - Elefsis (hel-Afb, Greece
Απόσταση από τον σταθμό: Α 158km
Ενημερώθηκε: 23-01-2018 07:20
Κυρίως Αίθριος
Κυρίως Αίθριος  
 Άνεμος από ΒΒΔ
Άνεμος: ΒΒΔ 22 km/h
Θερμοκρασία:  6°C
Δείκτης Ψυχρότητας:  2°C
Σημείο Δρόσου:  0°C
Υγρασία:  66%
Βαρόμετρο:  1015 hPa
Σύννεφα:  Κυρίως Αίθριος
Ορατότητα:  10 km
Λεπτομέρειες Σύννεφου:  Κυρίως Αίθριος 914 m
2018/01/23 05:20 LGEL 230520Z 33012KT 9999 FEW030 06/M00 Q1015
LGIO - Ioannina, Greece
Απόσταση από τον σταθμό: ΒΒΔ 181km
Ενημερώθηκε: 22-01-2018 21:20
ΜΗ τρέχουσες
Κυρίως Αίθριος
Κυρίως Αίθριος  
 Άνεμος από ποικίλλει
Άνεμος: ποικίλλει 0 km/h
Θερμοκρασία:  3°C
Σημείο Δρόσου:  -1°C
Υγρασία:  75%
Βαρόμετρο:  1010 hPa
Σύννεφα:  Κυρίως Αίθριος
Ορατότητα:  10 km
Λεπτομέρειες Σύννεφου:  Κυρίως Αίθριος 914 m
2018/01/22 19:20 LGIO 221920Z /////KT 9999 FEW030 03/M01 Q1010
LGSK - Skiathos Island, Greece
Απόσταση από τον σταθμό: ΒΑ 185km
Ενημερώθηκε: 22-01-2018 19:50
ΜΗ τρέχουσες
Κυρίως Συννεφιά
Κυρίως Συννεφιά  
 Άνεμος από Β
Άνεμος: Β 22 km/h, Ριπή: 41 km/h
Θερμοκρασία:  9°C
Δείκτης Ψυχρότητας:  6°C
Σημείο Δρόσου:  -1°C
Υγρασία:  50%
Βαρόμετρο:  1010 hPa
Σύννεφα:  Κυρίως Συννεφιά
Ορατότητα:  10 km
Λεπτομέρειες Σύννεφου:  Κυρίως Αίθριος 366 m
Κυρίως Συννεφιά 762 m
2018/01/22 17:50 LGSK 221750Z 35012G22KT 9999 FEW012 BKN025 09/M01 Q1010
LGAV - Athens/Elef-Ven, Greece
Απόσταση από τον σταθμό: Α 195km
Ενημερώθηκε: 23-01-2018 07:20
Μερικώς Νεφελώδης
Μερικώς Νεφελώδης  
 Άνεμος από ποικίλλει
Άνεμος: ποικίλλει 4 km/h
Θερμοκρασία:  7°C
Σημείο Δρόσου:  0°C
Υγρασία:  61%
Βαρόμετρο:  1015 hPa
Σύννεφα:  Μερικώς Νεφελώδης
Ορατότητα:  10 km
Λεπτομέρειες Σύννεφου:  Κυρίως Αίθριος 914 m
Μερικώς Νεφελώδης 1829 m
2018/01/23 05:20 LGAV 230520Z VRB02KT 9999 FEW030 SCT060 07/M00 Q1015 NOSIG
LGKR - Ioannis Kapodist, Greece
Απόσταση από τον σταθμό: ΒΔ 221km
Ενημερώθηκε: 23-01-2018 07:20
Αίθριος
Αίθριος  
 Άνεμος από calm
Άνεμος: Άπνοια
Θερμοκρασία:  3°C
Σημείο Δρόσου:  1°C
Υγρασία:  87%
Βαρόμετρο:  1014 hPa
Περίληψη:  Αίθριος
Ορατότητα:  μεγαλύτερο από 10 km
2018/01/23 05:20 LGKR 230520Z 00000KT CAVOK 03/01 Q1014 NOSIG

Script developed by  Saratoga-weather.org Προσαρμοσμένος για το πρότυπο του  Weerstation Leuven

Μπορείτε να βρείτε πληροφορίες καιρού μας και σε:


European Weather Network

WeatherCloud

Weather Underground

Hellas Meteo Network

AWEKAS

HAMweather, WeatherForYou, PWS Weather